Tampa, Florida
Traffic Map
Current Weather Conditions
Tampa, Florida
Overcast
Overcast
23°
Feels Like: 23°
Wind Chill: 23° Ceiling: 2500
Heat Index: 23° Visibility: 10mi
Dew Point: 19° Wind: 10mph
Humidity: 79% Direction: 30° (NNE)
Pressure: 30.1in Gusts: 20mph
Raw Report DataKTPA 180253Z 03009G17KT 10SM OVC025 23/19 A3010 RMK AO2 SLP192 CIG 019V026 T02330194 51018 $
Traffic Incident Summary
Active as of:
Severity:
Category:
InformationThere was an issue retrieving the traffic information for this location. Please try a different location or try again shortly.
Advertisements